sensor_id;sensor_type;location;lat;lon;timestamp;pressure;altitude;pressure_sealevel;temperature;humidity
8575;BME280;4325;42.520;27.448;2022-07-29T00:01:26;101058.31;;;23.46;100.00
8575;BME280;4325;42.520;27.448;2022-07-29T00:03:53;101054.25;;;23.43;100.00
8575;BME280;4325;42.520;27.448;2022-07-29T00:06:19;101051.91;;;23.45;100.00
8575;BME280;4325;42.520;27.448;2022-07-29T00:08:48;101049.44;;;23.44;100.00
8575;BME280;4325;42.520;27.448;2022-07-29T00:11:14;101055.63;;;23.37;100.00
8575;BME280;4325;42.520;27.448;2022-07-29T00:13:41;101051.44;;;23.31;100.00
8575;BME280;4325;42.520;27.448;2022-07-29T00:16:08;101044.19;;;23.30;100.00
8575;BME280;4325;42.520;27.448;2022-07-29T00:18:35;101045.59;;;23.24;100.00
8575;BME280;4325;42.520;27.448;2022-07-29T00:21:02;101051.16;;;23.24;100.00
8575;BME280;4325;42.520;27.448;2022-07-29T00:23:29;101047.59;;;23.24;100.00
8575;BME280;4325;42.520;27.448;2022-07-29T00:25:57;101046.16;;;23.18;100.00
8575;BME280;4325;42.520;27.448;2022-07-29T00:28:24;101041.53;;;23.22;100.00
8575;BME280;4325;42.520;27.448;2022-07-29T00:30:50;101049.09;;;23.21;100.00
8575;BME280;4325;42.520;27.448;2022-07-29T00:33:17;101049.44;;;23.20;100.00
8575;BME280;4325;42.520;27.448;2022-07-29T00:35:44;101049.09;;;23.21;100.00
8575;BME280;4325;42.520;27.448;2022-07-29T00:38:11;101048.28;;;23.21;100.00
8575;BME280;4325;42.520;27.448;2022-07-29T00:40:38;101054.22;;;23.19;100.00
8575;BME280;4325;42.520;27.448;2022-07-29T00:43:06;101054.91;;;23.16;100.00
8575;BME280;4325;42.520;27.448;2022-07-29T00:45:33;101053.50;;;23.10;100.00
8575;BME280;4325;42.520;27.448;2022-07-29T00:48:00;101043.50;;;23.09;100.00
8575;BME280;4325;42.520;27.448;2022-07-29T00:50:27;101058.84;;;23.03;100.00
8575;BME280;4325;42.520;27.448;2022-07-29T00:52:54;101058.03;;;23.02;100.00
8575;BME280;4325;42.520;27.448;2022-07-29T00:55:22;101051.16;;;23.00;100.00
8575;BME280;4325;42.520;27.448;2022-07-29T00:57:49;101052.56;;;22.94;100.00
8575;BME280;4325;42.520;27.448;2022-07-29T01:00:20;101041.97;;;22.87;100.00
8575;BME280;4325;42.520;27.448;2022-07-29T01:02:47;101036.50;;;22.91;100.00
8575;BME280;4325;42.520;27.448;2022-07-29T01:05:17;101041.97;;;22.87;100.00
8575;BME280;4325;42.520;27.448;2022-07-29T01:07:45;101043.94;;;22.87;100.00
8575;BME280;4325;42.520;27.448;2022-07-29T01:10:14;101042.97;;;22.83;100.00
8575;BME280;4325;42.520;27.448;2022-07-29T01:12:43;101035.44;;;22.83;100.00
8575;BME280;4325;42.520;27.448;2022-07-29T01:15:12;101032.78;;;22.87;100.00
8575;BME280;4325;42.520;27.448;2022-07-29T01:17:44;101035.56;;;22.87;100.00
8575;BME280;4325;42.520;27.448;2022-07-29T01:20:15;101034.59;;;22.83;100.00
8575;BME280;4325;42.520;27.448;2022-07-29T01:23:23;101016.25;;;22.82;100.00
8575;BME280;4325;42.520;27.448;2022-07-29T01:26:08;101016.00;;;22.75;100.00
8575;BME280;4325;42.520;27.448;2022-07-29T01:29:05;101027.84;;;22.72;100.00
8575;BME280;4325;42.520;27.448;2022-07-29T01:31:38;101015.88;;;22.71;100.00
8575;BME280;4325;42.520;27.448;2022-07-29T01:34:08;101021.00;;;22.69;100.00
8575;BME280;4325;42.520;27.448;2022-07-29T01:36:43;101020.38;;;22.64;100.00
8575;BME280;4325;42.520;27.448;2022-07-29T01:39:16;101020.38;;;22.64;100.00
8575;BME280;4325;42.520;27.448;2022-07-29T01:41:49;101017.47;;;22.60;100.00
8575;BME280;4325;42.520;27.448;2022-07-29T01:44:21;101018.59;;;22.59;100.00
8575;BME280;4325;42.520;27.448;2022-07-29T01:46:52;101015.34;;;22.57;100.00
8575;BME280;4325;42.520;27.448;2022-07-29T01:49:25;101009.75;;;22.57;100.00
8575;BME280;4325;42.520;27.448;2022-07-29T01:51:58;101022.72;;;22.62;100.00
8575;BME280;4325;42.520;27.448;2022-07-29T01:54:30;101025.97;;;22.64;100.00
8575;BME280;4325;42.520;27.448;2022-07-29T01:56:59;101022.50;;;22.67;100.00
8575;BME280;4325;42.520;27.448;2022-07-29T01:59:29;101021.22;;;22.64;100.00
8575;BME280;4325;42.520;27.448;2022-07-29T02:01:58;101016.63;;;22.60;100.00
8575;BME280;4325;42.520;27.448;2022-07-29T02:04:26;101010.59;;;22.58;100.00
8575;BME280;4325;42.520;27.448;2022-07-29T02:06:57;101009.63;;;22.54;100.00
8575;BME280;4325;42.520;27.448;2022-07-29T02:09:25;101020.78;;;22.54;100.00
8575;BME280;4325;42.520;27.448;2022-07-29T02:11:54;101010.91;;;22.56;100.00
8575;BME280;4325;42.520;27.448;2022-07-29T02:14:23;101015.22;;;22.54;100.00
8575;BME280;4325;42.520;27.448;2022-07-29T02:16:53;101007.09;;;22.49;100.00
8575;BME280;4325;42.520;27.448;2022-07-29T02:19:22;101009.38;;;22.47;100.00
8575;BME280;4325;42.520;27.448;2022-07-29T02:21:51;101002.88;;;22.43;100.00
8575;BME280;4325;42.520;27.448;2022-07-29T02:24:21;101003.22;;;22.41;100.00
8575;BME280;4325;42.520;27.448;2022-07-29T02:26:49;101005.19;;;22.41;100.00
8575;BME280;4325;42.520;27.448;2022-07-29T02:29:17;101009.94;;;22.40;100.00
8575;BME280;4325;42.520;27.448;2022-07-29T02:31:47;101020.28;;;22.40;100.00
8575;BME280;4325;42.520;27.448;2022-07-29T02:34:17;101009.13;;;22.40;100.00
8575;BME280;4325;42.520;27.448;2022-07-29T02:36:45;101011.47;;;22.38;100.00
8575;BME280;4325;42.520;27.448;2022-07-29T02:39:13;101012.13;;;22.34;100.00
8575;BME280;4325;42.520;27.448;2022-07-29T02:41:44;101009.22;;;22.31;100.00
8575;BME280;4325;42.520;27.448;2022-07-29T02:44:16;101016.78;;;22.30;100.00
8575;BME280;4325;42.520;27.448;2022-07-29T02:46:49;101015.84;;;22.26;100.00
8575;BME280;4325;42.520;27.448;2022-07-29T02:49:29;101018.13;;;22.24;100.00
8575;BME280;4325;42.520;27.448;2022-07-29T02:52:01;101018.28;;;22.28;100.00
8575;BME280;4325;42.520;27.448;2022-07-29T02:54:31;101011.63;;;22.20;100.00
8575;BME280;4325;42.520;27.448;2022-07-29T02:57:04;101026.03;;;22.22;100.00
8575;BME280;4325;42.520;27.448;2022-07-29T02:59:34;101030.00;;;22.21;100.00
8575;BME280;4325;42.520;27.448;2022-07-29T03:02:04;101026.19;;;22.26;100.00
8575;BME280;4325;42.520;27.448;2022-07-29T03:04:34;101027.22;;;22.21;100.00
8575;BME280;4325;42.520;27.448;2022-07-29T03:07:01;101033.00;;;22.16;100.00
8575;BME280;4325;42.520;27.448;2022-07-29T03:09:29;101029.88;;;22.18;100.00
8575;BME280;4325;42.520;27.448;2022-07-29T03:11:57;101031.50;;;22.19;100.00
8575;BME280;4325;42.520;27.448;2022-07-29T03:14:24;101041.16;;;22.21;100.00
8575;BME280;4325;42.520;27.448;2022-07-29T03:16:52;101033.59;;;22.22;100.00
8575;BME280;4325;42.520;27.448;2022-07-29T03:19:19;101036.88;;;22.24;100.00
8575;BME280;4325;42.520;27.448;2022-07-29T03:21:48;101041.63;;;22.23;100.00
8575;BME280;4325;42.520;27.448;2022-07-29T03:24:25;101043.47;;;22.19;100.00
8575;BME280;4325;42.520;27.448;2022-07-29T03:26:53;101039.25;;;22.13;100.00
8575;BME280;4325;42.520;27.448;2022-07-29T03:29:20;101044.97;;;22.17;100.00
8575;BME280;4325;42.520;27.448;2022-07-29T03:31:47;101040.41;;;22.12;100.00
8575;BME280;4325;42.520;27.448;2022-07-29T03:34:14;101041.84;;;22.18;100.00
8575;BME280;4325;42.520;27.448;2022-07-29T03:36:41;101043.34;;;22.16;100.00
8575;BME280;4325;42.520;27.448;2022-07-29T03:39:10;101037.91;;;22.19;100.00
8575;BME280;4325;42.520;27.448;2022-07-29T03:41:38;101045.34;;;22.27;100.00
8575;BME280;4325;42.520;27.448;2022-07-29T03:44:07;101034.47;;;22.34;100.00
8575;BME280;4325;42.520;27.448;2022-07-29T03:46:35;101041.69;;;22.35;100.00
8575;BME280;4325;42.520;27.448;2022-07-29T03:49:04;101046.44;;;22.35;100.00
8575;BME280;4325;42.520;27.448;2022-07-29T03:51:33;101026.66;;;22.28;100.00
8575;BME280;4325;42.520;27.448;2022-07-29T03:54:02;101044.38;;;22.44;100.00
8575;BME280;4325;42.520;27.448;2022-07-29T03:56:32;101043.81;;;22.51;100.00
8575;BME280;4325;42.520;27.448;2022-07-29T03:59:01;101042.56;;;22.60;100.00
8575;BME280;4325;42.520;27.448;2022-07-29T04:01:29;101045.75;;;22.71;100.00
8575;BME280;4325;42.520;27.448;2022-07-29T04:03:59;101042.06;;;22.79;100.00
8575;BME280;4325;42.520;27.448;2022-07-29T04:06:27;101053.25;;;22.91;100.00
8575;BME280;4325;42.520;27.448;2022-07-29T04:08:54;101050.38;;;22.99;100.00
8575;BME280;4325;42.520;27.448;2022-07-29T04:11:20;101045.13;;;23.10;100.00
8575;BME280;4325;42.520;27.448;2022-07-29T04:13:49;101057.03;;;23.19;100.00
8575;BME280;4325;42.520;27.448;2022-07-29T04:16:15;101064.13;;;23.29;100.00
8575;BME280;4325;42.520;27.448;2022-07-29T04:18:42;101064.47;;;23.39;100.00
8575;BME280;4325;42.520;27.448;2022-07-29T04:21:09;101071.25;;;23.50;100.00
8575;BME280;4325;42.520;27.448;2022-07-29T04:23:36;101066.34;;;23.59;100.00
8575;BME280;4325;42.520;27.448;2022-07-29T04:26:03;101067.84;;;23.69;100.00
8575;BME280;4325;42.520;27.448;2022-07-29T04:28:30;101068.19;;;23.80;100.00
8575;BME280;4325;42.520;27.448;2022-07-29T04:30:58;101070.50;;;23.90;100.00
8575;BME280;4325;42.520;27.448;2022-07-29T04:33:25;101075.56;;;24.00;99.23
8575;BME280;4325;42.520;27.448;2022-07-29T04:35:51;101075.47;;;24.08;99.06
8575;BME280;4325;42.520;27.448;2022-07-29T04:38:18;101087.91;;;24.23;96.51
8575;BME280;4325;42.520;27.448;2022-07-29T04:40:45;101088.09;;;24.30;96.02
8575;BME280;4325;42.520;27.448;2022-07-29T04:43:12;101073.88;;;24.35;95.73
8575;BME280;4325;42.520;27.448;2022-07-29T04:45:39;101086.28;;;24.50;94.38
8575;BME280;4325;42.520;27.448;2022-07-29T04:48:07;101079.81;;;24.61;93.56
8575;BME280;4325;42.520;27.448;2022-07-29T04:50:37;101081.91;;;24.64;93.48
8575;BME280;4325;42.520;27.448;2022-07-29T04:53:04;101080.94;;;24.72;91.83
8575;BME280;4325;42.520;27.448;2022-07-29T04:55:31;101089.34;;;24.72;92.41
8575;BME280;4325;42.520;27.448;2022-07-29T04:57:59;101081.38;;;24.74;92.54
8575;BME280;4325;42.520;27.448;2022-07-29T05:00:26;101081.38;;;24.74;92.60
8575;BME280;4325;42.520;27.448;2022-07-29T05:02:52;101075.09;;;24.77;93.15
8575;BME280;4325;42.520;27.448;2022-07-29T05:05:21;101079.97;;;24.80;93.23
8575;BME280;4325;42.520;27.448;2022-07-29T05:07:47;101078.28;;;24.91;92.50
8575;BME280;4325;42.520;27.448;2022-07-29T05:10:14;101080.53;;;25.02;93.46
8575;BME280;4325;42.520;27.448;2022-07-29T05:12:41;101084.69;;;25.08;92.77
8575;BME280;4325;42.520;27.448;2022-07-29T05:15:09;101088.13;;;25.17;93.24
8575;BME280;4325;42.520;27.448;2022-07-29T05:17:36;101084.44;;;25.28;93.47
8575;BME280;4325;42.520;27.448;2022-07-29T05:20:04;101082.25;;;25.37;94.33
8575;BME280;4325;42.520;27.448;2022-07-29T05:22:32;101082.19;;;25.49;96.54
8575;BME280;4325;42.520;27.448;2022-07-29T05:24:59;101084.50;;;25.63;97.26
8575;BME280;4325;42.520;27.448;2022-07-29T05:27:26;101082.50;;;25.79;100.00
8575;BME280;4325;42.520;27.448;2022-07-29T05:29:53;101078.81;;;25.94;98.99
8575;BME280;4325;42.520;27.448;2022-07-29T05:32:20;101081.69;;;26.13;96.85
8575;BME280;4325;42.520;27.448;2022-07-29T05:34:46;101090.03;;;26.29;95.99
8575;BME280;4325;42.520;27.448;2022-07-29T05:37:13;101088.03;;;26.49;93.90
8575;BME280;4325;42.520;27.448;2022-07-29T05:39:42;101092.44;;;26.69;93.02
8575;BME280;4325;42.520;27.448;2022-07-29T05:42:09;101084.25;;;26.79;90.21
8575;BME280;4325;42.520;27.448;2022-07-29T05:44:36;101088.16;;;26.94;89.38
8575;BME280;4325;42.520;27.448;2022-07-29T05:47:04;101089.16;;;27.05;89.14
8575;BME280;4325;42.520;27.448;2022-07-29T05:49:31;101090.13;;;27.16;88.33
8575;BME280;4325;42.520;27.448;2022-07-29T05:51:58;101086.69;;;27.26;87.92
8575;BME280;4325;42.520;27.448;2022-07-29T05:54:25;101092.09;;;27.35;85.45
8575;BME280;4325;42.520;27.448;2022-07-29T05:56:53;101093.81;;;27.43;84.59
8575;BME280;4325;42.520;27.448;2022-07-29T05:59:21;101095.06;;;27.45;85.69
8575;BME280;4325;42.520;27.448;2022-07-29T06:01:47;101097.16;;;27.48;89.74
8575;BME280;4325;42.520;27.448;2022-07-29T06:04:14;101099.63;;;27.54;93.20
8575;BME280;4325;42.520;27.448;2022-07-29T06:06:41;101104.94;;;27.59;89.03
8575;BME280;4325;42.520;27.448;2022-07-29T06:09:08;101106.09;;;27.54;90.67
8575;BME280;4325;42.520;27.448;2022-07-29T06:11:35;101101.31;;;27.58;90.74
8575;BME280;4325;42.520;27.448;2022-07-29T06:14:03;101106.13;;;27.58;91.94
8575;BME280;4325;42.520;27.448;2022-07-29T06:16:30;101105.06;;;27.66;90.28
8575;BME280;4325;42.520;27.448;2022-07-29T06:18:57;101110.69;;;27.66;93.53
8575;BME280;4325;42.520;27.448;2022-07-29T06:21:24;101112.03;;;27.75;91.43
8575;BME280;4325;42.520;27.448;2022-07-29T06:23:50;101114.50;;;27.77;86.52
8575;BME280;4325;42.520;27.448;2022-07-29T06:26:17;101116.16;;;27.81;86.13
8575;BME280;4325;42.520;27.448;2022-07-29T06:28:44;101111.78;;;27.84;88.25
8575;BME280;4325;42.520;27.448;2022-07-29T06:31:12;101124.59;;;27.81;86.58
8575;BME280;4325;42.520;27.448;2022-07-29T06:33:39;101117.44;;;27.87;88.28
8575;BME280;4325;42.520;27.448;2022-07-29T06:36:06;101107.84;;;27.92;89.16
8575;BME280;4325;42.520;27.448;2022-07-29T06:38:33;101113.88;;;27.90;85.07
8575;BME280;4325;42.520;27.448;2022-07-29T06:41:00;101109.75;;;27.84;84.95
8575;BME280;4325;42.520;27.448;2022-07-29T06:43:28;101116.53;;;27.80;84.78
8575;BME280;4325;42.520;27.448;2022-07-29T06:45:58;101115.25;;;27.74;86.44
8575;BME280;4325;42.520;27.448;2022-07-29T06:48:28;101117.72;;;27.79;87.28
8575;BME280;4325;42.520;27.448;2022-07-29T06:50:55;101118.97;;;27.81;85.76
8575;BME280;4325;42.520;27.448;2022-07-29T06:53:22;101115.13;;;27.93;88.54
8575;BME280;4325;42.520;27.448;2022-07-29T06:55:49;101114.06;;;28.01;87.53
8575;BME280;4325;42.520;27.448;2022-07-29T06:58:16;101118.97;;;28.07;85.10
8575;BME280;4325;42.520;27.448;2022-07-29T07:00:45;101119.03;;;28.11;83.81
8575;BME280;4325;42.520;27.448;2022-07-29T07:03:13;101117.03;;;28.11;81.08
8575;BME280;4325;42.520;27.448;2022-07-29T07:05:41;101116.69;;;28.17;84.23
8575;BME280;4325;42.520;27.448;2022-07-29T07:08:08;101120.75;;;28.19;85.83
8575;BME280;4325;42.520;27.448;2022-07-29T07:10:35;101108.72;;;28.22;84.93
8575;BME280;4325;42.520;27.448;2022-07-29T07:13:03;101110.38;;;28.23;81.52
8575;BME280;4325;42.520;27.448;2022-07-29T07:15:31;101109.56;;;28.26;82.30
8575;BME280;4325;42.520;27.448;2022-07-29T07:17:58;101115.34;;;28.37;83.03
8575;BME280;4325;42.520;27.448;2022-07-29T07:20:25;101112.56;;;28.40;79.96
8575;BME280;4325;42.520;27.448;2022-07-29T07:22:53;101119.06;;;28.44;81.76
8575;BME280;4325;42.520;27.448;2022-07-29T07:25:20;101109.81;;;28.44;78.46
8575;BME280;4325;42.520;27.448;2022-07-29T07:27:47;101125.56;;;28.48;77.75
8575;BME280;4325;42.520;27.448;2022-07-29T07:30:14;101119.50;;;28.46;77.14
8575;BME280;4325;42.520;27.448;2022-07-29T07:32:41;101113.81;;;28.43;76.19
8575;BME280;4325;42.520;27.448;2022-07-29T07:35:09;101132.28;;;28.40;77.13
8575;BME280;4325;42.520;27.448;2022-07-29T07:37:36;101131.19;;;28.48;78.29
8575;BME280;4325;42.520;27.448;2022-07-29T07:40:06;101115.50;;;28.47;77.47
8575;BME280;4325;42.520;27.448;2022-07-29T07:42:33;101125.81;;;28.36;77.61
8575;BME280;4325;42.520;27.448;2022-07-29T07:45:00;101126.56;;;28.33;79.62
8575;BME280;4325;42.520;27.448;2022-07-29T07:47:27;101128.63;;;28.36;79.16
8575;BME280;4325;42.520;27.448;2022-07-29T07:49:54;101132.28;;;28.40;80.17
8575;BME280;4325;42.520;27.448;2022-07-29T07:52:21;101125.91;;;28.43;79.44
8575;BME280;4325;42.520;27.448;2022-07-29T07:54:49;101120.25;;;28.43;79.50
8575;BME280;4325;42.520;27.448;2022-07-29T07:57:17;101130.69;;;28.39;80.78
8575;BME280;4325;42.520;27.448;2022-07-29T07:59:44;101127.44;;;28.37;80.24
8575;BME280;4325;42.520;27.448;2022-07-29T08:02:11;101133.91;;;28.38;81.48
8575;BME280;4325;42.520;27.448;2022-07-29T08:04:38;101126.81;;;28.51;82.13
8575;BME280;4325;42.520;27.448;2022-07-29T08:07:06;101136.28;;;28.65;82.75
8575;BME280;4325;42.520;27.448;2022-07-29T08:09:34;101127.97;;;28.79;80.41
8575;BME280;4325;42.520;27.448;2022-07-29T08:12:02;101119.22;;;28.88;80.82
8575;BME280;4325;42.520;27.448;2022-07-29T08:14:32;101124.16;;;28.98;80.76
8575;BME280;4325;42.520;27.448;2022-07-29T08:16:59;101117.00;;;29.08;79.18
8575;BME280;4325;42.520;27.448;2022-07-29T08:19:26;101126.72;;;29.14;77.26
8575;BME280;4325;42.520;27.448;2022-07-29T08:21:53;101125.22;;;29.20;78.26
8575;BME280;4325;42.520;27.448;2022-07-29T08:24:20;101126.69;;;29.47;78.82
8575;BME280;4325;42.520;27.448;2022-07-29T08:27:16;101128.28;;;29.95;72.97
8575;BME280;4325;42.520;27.448;2022-07-29T08:29:44;101122.81;;;30.31;69.77
8575;BME280;4325;42.520;27.448;2022-07-29T08:32:11;101119.91;;;30.96;67.44
8575;BME280;4325;42.520;27.448;2022-07-29T08:34:38;101126.03;;;31.51;63.39
8575;BME280;4325;42.520;27.448;2022-07-29T08:37:05;101127.97;;;32.21;62.12
8575;BME280;4325;42.520;27.448;2022-07-29T08:39:32;101126.56;;;33.40;58.81
8575;BME280;4325;42.520;27.448;2022-07-29T08:41:59;101128.06;;;34.97;53.53
8575;BME280;4325;42.520;27.448;2022-07-29T08:44:26;101132.66;;;35.45;49.86
8575;BME280;4325;42.520;27.448;2022-07-29T08:46:54;101125.53;;;36.46;46.95
8575;BME280;4325;42.520;27.448;2022-07-29T08:49:21;101126.84;;;37.32;42.76
8575;BME280;4325;42.520;27.448;2022-07-29T08:51:48;101123.03;;;38.16;41.83
8575;BME280;4325;42.520;27.448;2022-07-29T08:54:17;101142.63;;;39.13;38.66
8575;BME280;4325;42.520;27.448;2022-07-29T08:56:45;101129.94;;;39.98;35.92
8575;BME280;4325;42.520;27.448;2022-07-29T08:59:15;101129.66;;;40.61;32.72
8575;BME280;4325;42.520;27.448;2022-07-29T09:01:43;101122.69;;;40.93;33.68
8575;BME280;4325;42.520;27.448;2022-07-29T09:04:13;101125.88;;;40.95;32.17
8575;BME280;4325;42.520;27.448;2022-07-29T09:06:43;101128.72;;;40.64;31.84
8575;BME280;4325;42.520;27.448;2022-07-29T09:09:11;101135.72;;;40.42;31.86
8575;BME280;4325;42.520;27.448;2022-07-29T09:11:39;101118.81;;;40.87;30.82
8575;BME280;4325;42.520;27.448;2022-07-29T09:14:06;101117.94;;;41.48;29.14
8575;BME280;4325;42.520;27.448;2022-07-29T09:16:53;101123.06;;;41.44;29.31
8575;BME280;4325;42.520;27.448;2022-07-29T09:19:24;101118.81;;;42.57;27.71
8575;BME280;4325;42.520;27.448;2022-07-29T09:21:51;101119.75;;;42.72;26.35
8575;BME280;4325;42.520;27.448;2022-07-29T09:24:25;101122.03;;;43.43;25.93
8575;BME280;4325;42.520;27.448;2022-07-29T09:26:52;101123.91;;;42.71;25.53
8575;BME280;4325;42.520;27.448;2022-07-29T09:29:21;101117.66;;;43.24;25.24
8575;BME280;4325;42.520;27.448;2022-07-29T09:31:50;101123.81;;;43.64;24.76
8575;BME280;4325;42.520;27.448;2022-07-29T09:34:22;101123.97;;;43.70;24.74
8575;BME280;4325;42.520;27.448;2022-07-29T09:36:51;101117.03;;;43.76;24.50
8575;BME280;4325;42.520;27.448;2022-07-29T09:39:27;101116.25;;;44.52;24.04
8575;BME280;4325;42.520;27.448;2022-07-29T09:41:56;101116.75;;;44.51;23.65
8575;BME280;4325;42.520;27.448;2022-07-29T09:44:24;101109.41;;;45.29;23.47
8575;BME280;4325;42.520;27.448;2022-07-29T09:46:55;101118.88;;;46.04;22.59
8575;BME280;4325;42.520;27.448;2022-07-29T09:49:24;101124.38;;;45.82;22.21
8575;BME280;4325;42.520;27.448;2022-07-29T09:52:04;101115.34;;;44.61;22.87
8575;BME280;4325;42.520;27.448;2022-07-29T09:54:31;101120.44;;;44.66;23.46
8575;BME280;4325;42.520;27.448;2022-07-29T09:57:02;101114.25;;;43.34;24.02
8575;BME280;4325;42.520;27.448;2022-07-29T09:59:29;101106.28;;;42.79;25.30
8575;BME280;4325;42.520;27.448;2022-07-29T10:01:56;101116.56;;;43.45;24.49
8575;BME280;4325;42.520;27.448;2022-07-29T10:04:36;101114.41;;;44.26;23.55
8575;BME280;4325;42.520;27.448;2022-07-29T10:07:04;101113.03;;;44.94;23.15
8575;BME280;4325;42.520;27.448;2022-07-29T10:09:31;101109.63;;;45.10;22.12
8575;BME280;4325;42.520;27.448;2022-07-29T10:12:06;101103.53;;;45.08;22.44
8575;BME280;4325;42.520;27.448;2022-07-29T10:14:35;101103.28;;;44.77;22.38
8575;BME280;4325;42.520;27.448;2022-07-29T10:17:03;101109.44;;;44.99;23.09
8575;BME280;4325;42.520;27.448;2022-07-29T10:19:32;101108.44;;;44.44;22.55
8575;BME280;4325;42.520;27.448;2022-07-29T10:22:01;101103.06;;;44.37;22.19
8575;BME280;4325;42.520;27.448;2022-07-29T10:24:30;101113.47;;;43.81;22.89
8575;BME280;4325;42.520;27.448;2022-07-29T10:26:59;101103.16;;;43.66;23.33
8575;BME280;4325;42.520;27.448;2022-07-29T10:29:26;101105.94;;;43.98;22.92
8575;BME280;4325;42.520;27.448;2022-07-29T10:32:06;101095.13;;;44.76;22.46
8575;BME280;4325;42.520;27.448;2022-07-29T10:37:45;101092.72;;;45.58;21.15
8575;BME280;4325;42.520;27.448;2022-07-29T10:40:22;101095.69;;;44.94;21.51
8575;BME280;4325;42.520;27.448;2022-07-29T10:43:17;101087.16;;;44.56;21.64
8575;BME280;4325;42.520;27.448;2022-07-29T10:45:47;101086.91;;;44.16;22.25
8575;BME280;4325;42.520;27.448;2022-07-29T10:48:14;101082.91;;;44.13;22.54
8575;BME280;4325;42.520;27.448;2022-07-29T10:51:01;101077.47;;;43.91;22.51
8575;BME280;4325;42.520;27.448;2022-07-29T10:53:49;101091.50;;;44.08;21.90
8575;BME280;4325;42.520;27.448;2022-07-29T10:56:26;101078.78;;;43.90;22.52
8575;BME280;4325;42.520;27.448;2022-07-29T10:59:24;101086.94;;;44.89;21.77
8575;BME280;4325;42.520;27.448;2022-07-29T11:01:52;101082.94;;;44.86;20.54
8575;BME280;4325;42.520;27.448;2022-07-29T11:07:21;101086.34;;;44.70;20.72
8575;BME280;4325;42.520;27.448;2022-07-29T11:12:48;101066.75;;;45.23;20.26
8575;BME280;4325;42.520;27.448;2022-07-29T11:15:15;101073.41;;;45.50;20.03
8575;BME280;4325;42.520;27.448;2022-07-29T11:18:07;101067.31;;;46.08;19.57
8575;BME280;4325;42.520;27.448;2022-07-29T11:20:37;101069.47;;;46.13;19.29
8575;BME280;4325;42.520;27.448;2022-07-29T11:23:26;101068.34;;;45.25;19.76
8575;BME280;4325;42.520;27.448;2022-07-29T11:26:16;101066.09;;;44.12;20.62
8575;BME280;4325;42.520;27.448;2022-07-29T11:28:54;101070.94;;;44.06;21.15
8575;BME280;4325;42.520;27.448;2022-07-29T11:31:37;101056.81;;;43.93;21.28
8575;BME280;4325;42.520;27.448;2022-07-29T11:34:17;101046.25;;;43.90;20.98
8575;BME280;4325;42.520;27.448;2022-07-29T11:37:16;101065.00;;;44.24;21.26
8575;BME280;4325;42.520;27.448;2022-07-29T11:39:46;101064.22;;;44.38;22.76
8575;BME280;4325;42.520;27.448;2022-07-29T11:42:38;101055.66;;;44.43;21.71
8575;BME280;4325;42.520;27.448;2022-07-29T11:45:07;101060.47;;;44.61;21.96
8575;BME280;4325;42.520;27.448;2022-07-29T11:47:36;101056.84;;;44.95;22.43
8575;BME280;4325;42.520;27.448;2022-07-29T11:50:05;101050.56;;;45.72;20.95
8575;BME280;4325;42.520;27.448;2022-07-29T11:52:33;101044.47;;;45.90;21.10
8575;BME280;4325;42.520;27.448;2022-07-29T11:55:05;101046.38;;;46.44;20.33
8575;BME280;4325;42.520;27.448;2022-07-29T11:57:34;101042.72;;;45.98;20.30
8575;BME280;4325;42.520;27.448;2022-07-29T12:00:04;101042.03;;;45.43;20.95
8575;BME280;4325;42.520;27.448;2022-07-29T12:02:39;101049.19;;;45.47;20.63
8575;BME280;4325;42.520;27.448;2022-07-29T12:05:08;101036.09;;;44.82;21.04
8575;BME280;4325;42.520;27.448;2022-07-29T12:07:35;101030.50;;;44.93;21.61
8575;BME280;4325;42.520;27.448;2022-07-29T12:10:05;101030.31;;;45.32;21.30
8575;BME280;4325;42.520;27.448;2022-07-29T12:12:32;101024.16;;;45.24;21.37
8575;BME280;4325;42.520;27.448;2022-07-29T12:15:14;101030.13;;;45.00;21.52
8575;BME280;4325;42.520;27.448;2022-07-29T12:17:42;101028.75;;;45.16;21.30
8575;BME280;4325;42.520;27.448;2022-07-29T12:20:09;101026.84;;;45.13;21.33
8575;BME280;4325;42.520;27.448;2022-07-29T12:22:40;101016.00;;;44.88;21.15
8575;BME280;4325;42.520;27.448;2022-07-29T12:25:13;101019.59;;;44.68;21.90
8575;BME280;4325;42.520;27.448;2022-07-29T12:27:42;101013.00;;;44.82;21.72
8575;BME280;4325;42.520;27.448;2022-07-29T12:30:11;101015.25;;;45.07;21.85
8575;BME280;4325;42.520;27.448;2022-07-29T12:32:40;101016.34;;;45.30;21.54
8575;BME280;4325;42.520;27.448;2022-07-29T12:35:09;101012.31;;;44.87;21.40
8575;BME280;4325;42.520;27.448;2022-07-29T12:37:38;101014.84;;;44.50;22.01
8575;BME280;4325;42.520;27.448;2022-07-29T12:40:06;101007.97;;;44.48;22.02
8575;BME280;4325;42.520;27.448;2022-07-29T12:42:36;101013.00;;;43.94;22.57
8575;BME280;4325;42.520;27.448;2022-07-29T12:45:04;101001.94;;;43.78;22.75
8575;BME280;4325;42.520;27.448;2022-07-29T12:47:31;100996.66;;;43.77;22.64
8575;BME280;4325;42.520;27.448;2022-07-29T12:50:08;100996.56;;;43.71;22.71
8575;BME280;4325;42.520;27.448;2022-07-29T12:52:36;100995.75;;;43.00;23.62
8575;BME280;4325;42.520;27.448;2022-07-29T12:55:04;100992.47;;;42.50;24.44
8575;BME280;4325;42.520;27.448;2022-07-29T12:57:32;100992.25;;;42.12;24.32
8575;BME280;4325;42.520;27.448;2022-07-29T13:00:03;100994.13;;;41.24;25.19
8575;BME280;4325;42.520;27.448;2022-07-29T13:02:30;100991.22;;;40.36;26.33
8575;BME280;4325;42.520;27.448;2022-07-29T13:04:58;100985.84;;;40.77;26.80
8575;BME280;4325;42.520;27.448;2022-07-29T13:07:26;100976.38;;;40.99;26.32
8575;BME280;4325;42.520;27.448;2022-07-29T13:10:09;100984.81;;;41.11;25.89
8575;BME280;4325;42.520;27.448;2022-07-29T13:12:36;100983.34;;;40.49;26.40
8575;BME280;4325;42.520;27.448;2022-07-29T13:15:14;100984.38;;;40.73;26.29
8575;BME280;4325;42.520;27.448;2022-07-29T13:17:42;100977.19;;;41.08;26.85
8575;BME280;4325;42.520;27.448;2022-07-29T13:20:11;100979.47;;;41.40;25.78